sensor_id;sensor_type;location;lat;lon;timestamp;temperature;humidity
1678;DHT22;6034;46.864;15.216;2023-02-01T06:00:22;3.30;95.80
1678;DHT22;6034;46.864;15.216;2023-02-01T06:02:51;3.20;96.30
1678;DHT22;6034;46.864;15.216;2023-02-01T06:05:19;3.20;96.40
1678;DHT22;6034;46.864;15.216;2023-02-01T06:07:46;3.20;96.60
1678;DHT22;6034;46.864;15.216;2023-02-01T06:10:22;3.30;96.70
1678;DHT22;6034;46.864;15.216;2023-02-01T06:13:17;3.20;97.30
1678;DHT22;6034;46.864;15.216;2023-02-01T06:15:47;3.10;97.70
1678;DHT22;6034;46.864;15.216;2023-02-01T06:18:19;3.20;97.20
1678;DHT22;6034;46.864;15.216;2023-02-01T06:20:52;3.20;97.10
1678;DHT22;6034;46.864;15.216;2023-02-01T06:23:20;3.20;97.10
1678;DHT22;6034;46.864;15.216;2023-02-01T06:25:50;3.20;97.10
1678;DHT22;6034;46.864;15.216;2023-02-01T06:28:19;3.10;97.20
1678;DHT22;6034;46.864;15.216;2023-02-01T06:30:50;3.10;97.90
1678;DHT22;6034;46.864;15.216;2023-02-01T06:33:18;3.10;97.70
1678;DHT22;6034;46.864;15.216;2023-02-01T06:35:45;3.10;97.40
1678;DHT22;6034;46.864;15.216;2023-02-01T06:38:14;3.10;97.80
1678;DHT22;6034;46.864;15.216;2023-02-01T06:40:54;3.10;98.20
1678;DHT22;6034;46.864;15.216;2023-02-01T06:43:22;3.10;98.60
1678;DHT22;6034;46.864;15.216;2023-02-01T06:45:51;3.20;98.30
1678;DHT22;6034;46.864;15.216;2023-02-01T06:48:25;3.20;97.80
1678;DHT22;6034;46.864;15.216;2023-02-01T06:50:53;3.30;97.60
1678;DHT22;6034;46.864;15.216;2023-02-01T06:53:37;3.30;96.80
1678;DHT22;6034;46.864;15.216;2023-02-01T06:56:11;3.50;95.90
1678;DHT22;6034;46.864;15.216;2023-02-01T06:58:40;3.50;95.70
1678;DHT22;6034;46.864;15.216;2023-02-01T07:01:10;3.60;96.30
1678;DHT22;6034;46.864;15.216;2023-02-01T07:03:40;3.70;95.70
1678;DHT22;6034;46.864;15.216;2023-02-01T07:06:08;3.70;98.20
1678;DHT22;6034;46.864;15.216;2023-02-01T07:08:37;3.60;98.10
1678;DHT22;6034;46.864;15.216;2023-02-01T07:11:05;3.70;98.10
1678;DHT22;6034;46.864;15.216;2023-02-01T07:13:33;3.70;97.30
1678;DHT22;6034;46.864;15.216;2023-02-01T07:16:00;3.70;96.80
1678;DHT22;6034;46.864;15.216;2023-02-01T07:18:31;3.80;97.10
1678;DHT22;6034;46.864;15.216;2023-02-01T07:20:59;3.80;98.30
1678;DHT22;6034;46.864;15.216;2023-02-01T07:23:34;3.80;97.90
1678;DHT22;6034;46.864;15.216;2023-02-01T07:26:04;3.40;97.70
1678;DHT22;6034;46.864;15.216;2023-02-01T07:28:34;3.30;98.40
1678;DHT22;6034;46.864;15.216;2023-02-01T07:31:03;3.40;98.80
1678;DHT22;6034;46.864;15.216;2023-02-01T07:33:32;3.40;99.00
1678;DHT22;6034;46.864;15.216;2023-02-01T07:36:01;3.50;99.30
1678;DHT22;6034;46.864;15.216;2023-02-01T07:38:38;3.50;99.70
1678;DHT22;6034;46.864;15.216;2023-02-01T07:41:08;3.50;99.90
1678;DHT22;6034;46.864;15.216;2023-02-01T07:43:36;3.00;99.40
1678;DHT22;6034;46.864;15.216;2023-02-01T07:46:04;3.20;99.90
1678;DHT22;6034;46.864;15.216;2023-02-01T07:49:06;3.30;99.90
1678;DHT22;6034;46.864;15.216;2023-02-01T07:51:34;3.60;99.60
1678;DHT22;6034;46.864;15.216;2023-02-01T07:54:01;3.10;99.90
1678;DHT22;6034;46.864;15.216;2023-02-01T07:56:29;3.20;99.90
1678;DHT22;6034;46.864;15.216;2023-02-01T08:01:55;3.60;99.90
1678;DHT22;6034;46.864;15.216;2023-02-01T08:04:23;3.60;99.80
1678;DHT22;6034;46.864;15.216;2023-02-01T08:06:50;3.60;99.80
1678;DHT22;6034;46.864;15.216;2023-02-01T08:09:22;3.80;99.90
1678;DHT22;6034;46.864;15.216;2023-02-01T08:11:49;3.70;99.90
1678;DHT22;6034;46.864;15.216;2023-02-01T08:14:17;3.60;99.50
1678;DHT22;6034;46.864;15.216;2023-02-01T08:16:45;3.60;99.60
1678;DHT22;6034;46.864;15.216;2023-02-01T08:19:13;3.60;99.40
1678;DHT22;6034;46.864;15.216;2023-02-01T08:21:41;3.60;99.40
1678;DHT22;6034;46.864;15.216;2023-02-01T08:24:12;3.70;99.90
1678;DHT22;6034;46.864;15.216;2023-02-01T08:26:39;3.60;99.90
1678;DHT22;6034;46.864;15.216;2023-02-01T08:29:09;3.60;99.90
1678;DHT22;6034;46.864;15.216;2023-02-01T08:31:46;3.80;99.90
1678;DHT22;6034;46.864;15.216;2023-02-01T08:34:13;3.70;99.70
1678;DHT22;6034;46.864;15.216;2023-02-01T08:36:42;3.90;99.60
1678;DHT22;6034;46.864;15.216;2023-02-01T08:39:16;3.90;99.90
1678;DHT22;6034;46.864;15.216;2023-02-01T08:41:44;4.20;99.90
1678;DHT22;6034;46.864;15.216;2023-02-01T08:44:44;3.80;99.50
1678;DHT22;6034;46.864;15.216;2023-02-01T08:47:12;4.10;99.90
1678;DHT22;6034;46.864;15.216;2023-02-01T08:49:40;4.10;99.90
1678;DHT22;6034;46.864;15.216;2023-02-01T08:52:09;4.30;99.90
1678;DHT22;6034;46.864;15.216;2023-02-01T08:54:42;4.00;99.00
1678;DHT22;6034;46.864;15.216;2023-02-01T08:57:21;3.90;98.90
1678;DHT22;6034;46.864;15.216;2023-02-01T08:59:49;4.00;99.10
1678;DHT22;6034;46.864;15.216;2023-02-01T09:02:17;4.10;99.50
1678;DHT22;6034;46.864;15.216;2023-02-01T09:04:44;4.20;99.90
1678;DHT22;6034;46.864;15.216;2023-02-01T09:07:13;4.20;99.90
1678;DHT22;6034;46.864;15.216;2023-02-01T09:09:42;4.10;99.90
1678;DHT22;6034;46.864;15.216;2023-02-01T09:12:10;4.30;99.90
1678;DHT22;6034;46.864;15.216;2023-02-01T09:18:01;4.40;99.90
1678;DHT22;6034;46.864;15.216;2023-02-01T09:20:28;4.60;99.90
1678;DHT22;6034;46.864;15.216;2023-02-01T09:22:57;4.60;99.90
1678;DHT22;6034;46.864;15.216;2023-02-01T09:25:26;4.80;99.90
1678;DHT22;6034;46.864;15.216;2023-02-01T09:27:57;4.70;99.90
1678;DHT22;6034;46.864;15.216;2023-02-01T09:30:24;5.00;99.90
1678;DHT22;6034;46.864;15.216;2023-02-01T09:32:52;5.00;99.90
1678;DHT22;6034;46.864;15.216;2023-02-01T09:35:24;5.10;99.90
1678;DHT22;6034;46.864;15.216;2023-02-01T09:37:52;5.10;99.90
1678;DHT22;6034;46.864;15.216;2023-02-01T09:40:22;5.30;99.90
1678;DHT22;6034;46.864;15.216;2023-02-01T09:43:16;5.30;99.90
1678;DHT22;6034;46.864;15.216;2023-02-01T09:45:59;5.40;99.90
1678;DHT22;6034;46.864;15.216;2023-02-01T09:48:33;5.60;99.90
1678;DHT22;6034;46.864;15.216;2023-02-01T09:51:06;5.70;99.90
1678;DHT22;6034;46.864;15.216;2023-02-01T09:53:36;5.80;99.90
1678;DHT22;6034;46.864;15.216;2023-02-01T09:56:10;5.90;99.90
1678;DHT22;6034;46.864;15.216;2023-02-01T09:58:44;5.90;99.90
1678;DHT22;6034;46.864;15.216;2023-02-01T10:01:18;6.10;99.90
1678;DHT22;6034;46.864;15.216;2023-02-01T10:03:48;6.00;99.90
1678;DHT22;6034;46.864;15.216;2023-02-01T10:06:33;6.00;99.90
1678;DHT22;6034;46.864;15.216;2023-02-01T10:12:13;6.30;99.40
1678;DHT22;6034;46.864;15.216;2023-02-01T10:14:56;6.20;99.30
1678;DHT22;6034;46.864;15.216;2023-02-01T10:17:42;6.30;99.30
1678;DHT22;6034;46.864;15.216;2023-02-01T10:20:19;6.60;99.90
1678;DHT22;6034;46.864;15.216;2023-02-01T10:23:03;6.70;99.20
1678;DHT22;6034;46.864;15.216;2023-02-01T10:25:47;6.90;99.60
1678;DHT22;6034;46.864;15.216;2023-02-01T10:28:22;7.10;99.70
1678;DHT22;6034;46.864;15.216;2023-02-01T10:30:54;7.20;99.60
1678;DHT22;6034;46.864;15.216;2023-02-01T10:33:25;7.40;99.60
1678;DHT22;6034;46.864;15.216;2023-02-01T10:35:58;7.30;98.50
1678;DHT22;6034;46.864;15.216;2023-02-01T10:38:28;7.50;98.40
1678;DHT22;6034;46.864;15.216;2023-02-01T10:41:02;7.40;97.70
1678;DHT22;6034;46.864;15.216;2023-02-01T11:10:44;8.20;96.30
1678;DHT22;6034;46.864;15.216;2023-02-01T11:13:15;8.40;94.80
1678;DHT22;6034;46.864;15.216;2023-02-01T11:15:43;8.40;94.40
1678;DHT22;6034;46.864;15.216;2023-02-01T11:18:18;8.50;92.10
1678;DHT22;6034;46.864;15.216;2023-02-01T11:20:48;8.50;92.60
1678;DHT22;6034;46.864;15.216;2023-02-01T11:23:21;8.70;93.80
1678;DHT22;6034;46.864;15.216;2023-02-01T11:26:21;8.80;93.30
1678;DHT22;6034;46.864;15.216;2023-02-01T11:28:58;9.00;92.30
1678;DHT22;6034;46.864;15.216;2023-02-01T11:31:28;9.10;91.10
1678;DHT22;6034;46.864;15.216;2023-02-01T11:34:00;9.40;88.10
1678;DHT22;6034;46.864;15.216;2023-02-01T11:36:38;9.50;84.90
1678;DHT22;6034;46.864;15.216;2023-02-01T11:43:08;9.60;90.00
1678;DHT22;6034;46.864;15.216;2023-02-01T11:45:53;9.80;83.40
1678;DHT22;6034;46.864;15.216;2023-02-01T11:51:48;9.90;79.50
1678;DHT22;6034;46.864;15.216;2023-02-01T11:57:39;10.00;68.70
1678;DHT22;6034;46.864;15.216;2023-02-01T12:00:29;10.00;67.40
1678;DHT22;6034;46.864;15.216;2023-02-01T12:03:27;10.00;69.20
1678;DHT22;6034;46.864;15.216;2023-02-01T12:06:22;10.10;65.80
1678;DHT22;6034;46.864;15.216;2023-02-01T12:09:05;10.20;68.80
1678;DHT22;6034;46.864;15.216;2023-02-01T12:12:08;10.30;67.60
1678;DHT22;6034;46.864;15.216;2023-02-01T12:15:04;10.40;66.90
1678;DHT22;6034;46.864;15.216;2023-02-01T12:21:06;10.60;68.10
1678;DHT22;6034;46.864;15.216;2023-02-01T12:23:53;10.60;66.90
1678;DHT22;6034;46.864;15.216;2023-02-01T12:26:40;10.60;64.90
1678;DHT22;6034;46.864;15.216;2023-02-01T12:29:35;10.60;61.30
1678;DHT22;6034;46.864;15.216;2023-02-01T12:32:15;10.60;63.50
1678;DHT22;6034;46.864;15.216;2023-02-01T12:38:26;10.60;62.10
1678;DHT22;6034;46.864;15.216;2023-02-01T12:41:06;10.50;62.20
1678;DHT22;6034;46.864;15.216;2023-02-01T12:43:41;10.50;62.10
1678;DHT22;6034;46.864;15.216;2023-02-01T12:46:23;10.50;62.00
1678;DHT22;6034;46.864;15.216;2023-02-01T12:48:59;10.50;61.20
1678;DHT22;6034;46.864;15.216;2023-02-01T12:51:29;10.60;63.50
1678;DHT22;6034;46.864;15.216;2023-02-01T12:54:06;10.50;63.20
1678;DHT22;6034;46.864;15.216;2023-02-01T12:57:04;10.60;63.00
1678;DHT22;6034;46.864;15.216;2023-02-01T12:59:42;10.60;61.60
1678;DHT22;6034;46.864;15.216;2023-02-01T13:02:18;10.60;58.50
1678;DHT22;6034;46.864;15.216;2023-02-01T13:04:55;10.60;59.10
1678;DHT22;6034;46.864;15.216;2023-02-01T13:07:34;10.60;62.00
1678;DHT22;6034;46.864;15.216;2023-02-01T13:10:14;10.50;62.30
1678;DHT22;6034;46.864;15.216;2023-02-01T13:12:47;10.60;61.80
1678;DHT22;6034;46.864;15.216;2023-02-01T13:15:19;10.50;62.10
1678;DHT22;6034;46.864;15.216;2023-02-01T13:17:53;10.50;60.00
1678;DHT22;6034;46.864;15.216;2023-02-01T13:20:29;10.60;54.60
1678;DHT22;6034;46.864;15.216;2023-02-01T13:23:00;10.50;54.80
1678;DHT22;6034;46.864;15.216;2023-02-01T13:25:35;10.60;55.50
1678;DHT22;6034;46.864;15.216;2023-02-01T13:28:40;10.50;55.60
1678;DHT22;6034;46.864;15.216;2023-02-01T13:34:42;10.50;54.20
1678;DHT22;6034;46.864;15.216;2023-02-01T13:37:48;10.50;55.60
1678;DHT22;6034;46.864;15.216;2023-02-01T13:40:37;10.40;56.10
1678;DHT22;6034;46.864;15.216;2023-02-01T13:43:22;10.50;55.00
1678;DHT22;6034;46.864;15.216;2023-02-01T13:45:52;10.50;53.90
1678;DHT22;6034;46.864;15.216;2023-02-01T13:48:29;10.40;53.30
1678;DHT22;6034;46.864;15.216;2023-02-01T13:51:10;10.40;51.60
1678;DHT22;6034;46.864;15.216;2023-02-01T13:53:50;10.40;52.00
1678;DHT22;6034;46.864;15.216;2023-02-01T13:56:19;10.30;53.00
1678;DHT22;6034;46.864;15.216;2023-02-01T13:58:48;10.30;55.20
1678;DHT22;6034;46.864;15.216;2023-02-01T14:01:34;10.20;55.50
1678;DHT22;6034;46.864;15.216;2023-02-01T14:04:05;10.20;55.70
1678;DHT22;6034;46.864;15.216;2023-02-01T14:06:42;10.20;54.60
1678;DHT22;6034;46.864;15.216;2023-02-01T14:09:21;10.20;55.60
1678;DHT22;6034;46.864;15.216;2023-02-01T14:15:27;10.10;53.90
1678;DHT22;6034;46.864;15.216;2023-02-01T14:17:55;10.10;54.60
1678;DHT22;6034;46.864;15.216;2023-02-01T14:20:43;10.10;55.30
1678;DHT22;6034;46.864;15.216;2023-02-01T14:23:28;10.00;56.50
1678;DHT22;6034;46.864;15.216;2023-02-01T14:29:26;9.80;58.60
1678;DHT22;6034;46.864;15.216;2023-02-01T14:32:03;9.70;59.40
1678;DHT22;6034;46.864;15.216;2023-02-01T14:34:48;9.70;58.70
1678;DHT22;6034;46.864;15.216;2023-02-01T14:37:29;9.50;59.50
1678;DHT22;6034;46.864;15.216;2023-02-01T14:40:00;9.60;60.10
1678;DHT22;6034;46.864;15.216;2023-02-01T14:42:34;9.40;59.80
1678;DHT22;6034;46.864;15.216;2023-02-01T14:48:45;9.40;60.90
1678;DHT22;6034;46.864;15.216;2023-02-01T14:51:19;9.30;62.40
1678;DHT22;6034;46.864;15.216;2023-02-01T14:54:06;9.20;60.60
1678;DHT22;6034;46.864;15.216;2023-02-01T14:56:35;9.20;59.70
1678;DHT22;6034;46.864;15.216;2023-02-01T14:59:08;9.30;60.30
1678;DHT22;6034;46.864;15.216;2023-02-01T15:01:49;9.20;61.30
1678;DHT22;6034;46.864;15.216;2023-02-01T15:04:41;9.20;60.30
1678;DHT22;6034;46.864;15.216;2023-02-01T15:07:21;9.20;60.80
1678;DHT22;6034;46.864;15.216;2023-02-01T15:09:58;9.10;61.20
1678;DHT22;6034;46.864;15.216;2023-02-01T15:12:27;9.10;62.50
1678;DHT22;6034;46.864;15.216;2023-02-01T15:15:11;9.10;61.30
1678;DHT22;6034;46.864;15.216;2023-02-01T15:17:39;9.10;61.80
1678;DHT22;6034;46.864;15.216;2023-02-01T15:20:15;9.00;61.90
1678;DHT22;6034;46.864;15.216;2023-02-01T15:22:51;8.90;60.40
1678;DHT22;6034;46.864;15.216;2023-02-01T15:25:22;9.00;60.10
1678;DHT22;6034;46.864;15.216;2023-02-01T15:27:49;8.90;60.20
1678;DHT22;6034;46.864;15.216;2023-02-01T15:30:52;8.90;60.60
1678;DHT22;6034;46.864;15.216;2023-02-01T15:33:20;8.80;61.40
1678;DHT22;6034;46.864;15.216;2023-02-01T15:36:26;8.80;61.20
1678;DHT22;6034;46.864;15.216;2023-02-01T15:39:17;8.60;61.30
1678;DHT22;6034;46.864;15.216;2023-02-01T15:41:51;8.60;61.50
1678;DHT22;6034;46.864;15.216;2023-02-01T15:44:24;8.60;61.50
1678;DHT22;6034;46.864;15.216;2023-02-01T15:46:54;8.50;60.90
1678;DHT22;6034;46.864;15.216;2023-02-01T15:49:26;8.50;60.80
1678;DHT22;6034;46.864;15.216;2023-02-01T15:51:56;8.50;60.50
1678;DHT22;6034;46.864;15.216;2023-02-01T15:54:27;8.40;61.00
1678;DHT22;6034;46.864;15.216;2023-02-01T15:57:18;8.30;61.40
1678;DHT22;6034;46.864;15.216;2023-02-01T15:59:47;8.30;61.80
1678;DHT22;6034;46.864;15.216;2023-02-01T16:02:28;8.20;62.80
1678;DHT22;6034;46.864;15.216;2023-02-01T16:04:58;8.20;61.30
1678;DHT22;6034;46.864;15.216;2023-02-01T16:07:29;8.10;61.10
1678;DHT22;6034;46.864;15.216;2023-02-01T16:09:58;8.10;63.30
1678;DHT22;6034;46.864;15.216;2023-02-01T16:12:31;8.00;64.10
1678;DHT22;6034;46.864;15.216;2023-02-01T16:15:00;8.10;65.70
1678;DHT22;6034;46.864;15.216;2023-02-01T16:17:30;8.10;65.40
1678;DHT22;6034;46.864;15.216;2023-02-01T16:19:57;8.10;66.80
1678;DHT22;6034;46.864;15.216;2023-02-01T16:22:26;8.00;65.30
1678;DHT22;6034;46.864;15.216;2023-02-01T16:24:54;7.90;65.10
1678;DHT22;6034;46.864;15.216;2023-02-01T16:27:22;7.90;61.20
1678;DHT22;6034;46.864;15.216;2023-02-01T16:29:50;7.90;61.40
1678;DHT22;6034;46.864;15.216;2023-02-01T16:32:22;7.80;62.50
1678;DHT22;6034;46.864;15.216;2023-02-01T16:34:57;7.80;62.50
1678;DHT22;6034;46.864;15.216;2023-02-01T16:37:26;7.80;63.10
1678;DHT22;6034;46.864;15.216;2023-02-01T16:39:58;7.70;61.90
1678;DHT22;6034;46.864;15.216;2023-02-01T16:42:25;7.70;64.50
1678;DHT22;6034;46.864;15.216;2023-02-01T16:44:56;7.60;64.10
1678;DHT22;6034;46.864;15.216;2023-02-01T16:47:23;7.60;62.90
1678;DHT22;6034;46.864;15.216;2023-02-01T16:49:51;7.50;62.10
1678;DHT22;6034;46.864;15.216;2023-02-01T16:52:23;7.50;62.20
1678;DHT22;6034;46.864;15.216;2023-02-01T16:54:59;7.40;63.10
1678;DHT22;6034;46.864;15.216;2023-02-01T16:57:26;7.40;61.40
1678;DHT22;6034;46.864;15.216;2023-02-01T16:59:55;7.40;61.60
1678;DHT22;6034;46.864;15.216;2023-02-01T17:02:22;7.40;60.20
1678;DHT22;6034;46.864;15.216;2023-02-01T17:04:50;7.50;60.40
1678;DHT22;6034;46.864;15.216;2023-02-01T17:07:19;7.30;62.50
1678;DHT22;6034;46.864;15.216;2023-02-01T17:09:48;7.30;62.00
1678;DHT22;6034;46.864;15.216;2023-02-01T17:12:24;7.30;64.10
1678;DHT22;6034;46.864;15.216;2023-02-01T17:14:53;7.30;63.70
1678;DHT22;6034;46.864;15.216;2023-02-01T17:17:21;7.20;65.80
1678;DHT22;6034;46.864;15.216;2023-02-01T17:19:51;7.20;64.40
1678;DHT22;6034;46.864;15.216;2023-02-01T17:22:23;7.20;66.30
1678;DHT22;6034;46.864;15.216;2023-02-01T17:24:52;7.10;64.60
1678;DHT22;6034;46.864;15.216;2023-02-01T17:27:23;7.10;64.70
1678;DHT22;6034;46.864;15.216;2023-02-01T17:29:51;7.20;65.90
1678;DHT22;6034;46.864;15.216;2023-02-01T17:32:22;7.00;65.60
1678;DHT22;6034;46.864;15.216;2023-02-01T17:34:51;7.00;65.60
1678;DHT22;6034;46.864;15.216;2023-02-01T17:37:24;7.10;67.30
1678;DHT22;6034;46.864;15.216;2023-02-01T17:39:53;7.20;68.60
1678;DHT22;6034;46.864;15.216;2023-02-01T17:42:23;7.10;69.30
1678;DHT22;6034;46.864;15.216;2023-02-01T17:44:55;7.00;70.60
1678;DHT22;6034;46.864;15.216;2023-02-01T17:47:23;7.10;70.10
1678;DHT22;6034;46.864;15.216;2023-02-01T17:49:51;6.90;67.80
1678;DHT22;6034;46.864;15.216;2023-02-01T17:52:23;6.70;64.80
1678;DHT22;6034;46.864;15.216;2023-02-01T17:54:51;6.80;68.10
1678;DHT22;6034;46.864;15.216;2023-02-01T17:57:29;6.90;68.80
1678;DHT22;6034;46.864;15.216;2023-02-01T18:00:13;6.90;68.30
1678;DHT22;6034;46.864;15.216;2023-02-01T18:02:58;6.70;68.00
1678;DHT22;6034;46.864;15.216;2023-02-01T18:05:31;6.70;69.20
1678;DHT22;6034;46.864;15.216;2023-02-01T18:08:04;6.70;70.10
1678;DHT22;6034;46.864;15.216;2023-02-01T18:10:33;6.80;68.10
1678;DHT22;6034;46.864;15.216;2023-02-01T18:13:17;6.80;67.60
1678;DHT22;6034;46.864;15.216;2023-02-01T18:15:48;6.70;67.60
1678;DHT22;6034;46.864;15.216;2023-02-01T18:18:19;6.60;67.10
1678;DHT22;6034;46.864;15.216;2023-02-01T18:20:47;6.60;68.00
1678;DHT22;6034;46.864;15.216;2023-02-01T18:23:18;6.40;67.10
1678;DHT22;6034;46.864;15.216;2023-02-01T18:25:47;6.50;68.10
1678;DHT22;6034;46.864;15.216;2023-02-01T18:28:18;6.20;69.60
1678;DHT22;6034;46.864;15.216;2023-02-01T18:30:51;6.30;68.30
1678;DHT22;6034;46.864;15.216;2023-02-01T18:33:20;6.30;66.00
1678;DHT22;6034;46.864;15.216;2023-02-01T18:35:48;6.40;65.10
1678;DHT22;6034;46.864;15.216;2023-02-01T18:38:17;6.60;63.50
1678;DHT22;6034;46.864;15.216;2023-02-01T18:40:48;6.60;63.80
1678;DHT22;6034;46.864;15.216;2023-02-01T18:43:19;6.60;64.50
1678;DHT22;6034;46.864;15.216;2023-02-01T18:45:48;6.60;64.20
1678;DHT22;6034;46.864;15.216;2023-02-01T18:48:18;6.70;63.50
1678;DHT22;6034;46.864;15.216;2023-02-01T18:50:48;6.70;63.90
1678;DHT22;6034;46.864;15.216;2023-02-01T18:53:22;6.70;64.30
1678;DHT22;6034;46.864;15.216;2023-02-01T18:55:57;6.70;64.40
1678;DHT22;6034;46.864;15.216;2023-02-01T18:58:39;6.70;64.40
1678;DHT22;6034;46.864;15.216;2023-02-01T19:01:21;6.80;63.70
1678;DHT22;6034;46.864;15.216;2023-02-01T19:03:51;6.70;64.60
1678;DHT22;6034;46.864;15.216;2023-02-01T19:06:19;6.70;65.30
1678;DHT22;6034;46.864;15.216;2023-02-01T19:08:47;6.70;66.10
1678;DHT22;6034;46.864;15.216;2023-02-01T19:11:19;6.70;66.90
1678;DHT22;6034;46.864;15.216;2023-02-01T19:13:51;6.70;66.60
1678;DHT22;6034;46.864;15.216;2023-02-01T19:16:25;6.80;65.70
1678;DHT22;6034;46.864;15.216;2023-02-01T19:19:04;6.80;65.50
1678;DHT22;6034;46.864;15.216;2023-02-01T19:21:32;6.80;66.60
1678;DHT22;6034;46.864;15.216;2023-02-01T19:24:01;6.80;68.00
1678;DHT22;6034;46.864;15.216;2023-02-01T19:26:30;6.80;66.10
1678;DHT22;6034;46.864;15.216;2023-02-01T19:29:00;6.90;65.80
1678;DHT22;6034;46.864;15.216;2023-02-01T19:31:29;6.90;65.10
1678;DHT22;6034;46.864;15.216;2023-02-01T19:33:58;6.90;65.30
1678;DHT22;6034;46.864;15.216;2023-02-01T19:36:27;6.90;64.80
1678;DHT22;6034;46.864;15.216;2023-02-01T19:38:56;6.90;65.30
1678;DHT22;6034;46.864;15.216;2023-02-01T19:41:25;6.90;68.00
1678;DHT22;6034;46.864;15.216;2023-02-01T19:43:54;6.70;70.00
1678;DHT22;6034;46.864;15.216;2023-02-01T19:46:27;6.60;68.70
1678;DHT22;6034;46.864;15.216;2023-02-01T19:48:55;6.50;72.80
1678;DHT22;6034;46.864;15.216;2023-02-01T19:51:24;6.40;73.10
1678;DHT22;6034;46.864;15.216;2023-02-01T19:53:52;6.10;72.70
1678;DHT22;6034;46.864;15.216;2023-02-01T19:56:21;6.00;71.70
1678;DHT22;6034;46.864;15.216;2023-02-01T19:58:50;6.20;70.90
1678;DHT22;6034;46.864;15.216;2023-02-01T20:01:21;6.00;73.10
1678;DHT22;6034;46.864;15.216;2023-02-01T20:03:53;6.00;70.60
1678;DHT22;6034;46.864;15.216;2023-02-01T20:06:27;6.10;71.00
1678;DHT22;6034;46.864;15.216;2023-02-01T20:08:55;6.30;68.50
1678;DHT22;6034;46.864;15.216;2023-02-01T20:11:25;6.40;69.00
1678;DHT22;6034;46.864;15.216;2023-02-01T20:13:54;6.30;70.40
1678;DHT22;6034;46.864;15.216;2023-02-01T20:16:33;6.30;69.70
1678;DHT22;6034;46.864;15.216;2023-02-01T20:19:04;6.40;70.20
1678;DHT22;6034;46.864;15.216;2023-02-01T20:21:37;6.40;69.90
1678;DHT22;6034;46.864;15.216;2023-02-01T20:24:09;6.50;69.00
1678;DHT22;6034;46.864;15.216;2023-02-01T20:26:41;6.50;69.40
1678;DHT22;6034;46.864;15.216;2023-02-01T20:29:09;6.60;69.60
1678;DHT22;6034;46.864;15.216;2023-02-01T20:31:39;6.40;71.80
1678;DHT22;6034;46.864;15.216;2023-02-01T20:34:09;6.50;74.00
1678;DHT22;6034;46.864;15.216;2023-02-01T20:36:41;6.20;71.00
1678;DHT22;6034;46.864;15.216;2023-02-01T20:39:10;6.30;70.80
1678;DHT22;6034;46.864;15.216;2023-02-01T20:41:51;6.40;70.20
1678;DHT22;6034;46.864;15.216;2023-02-01T20:44:23;6.50;70.20
1678;DHT22;6034;46.864;15.216;2023-02-01T20:46:52;6.40;70.90
1678;DHT22;6034;46.864;15.216;2023-02-01T20:49:46;6.50;70.80
1678;DHT22;6034;46.864;15.216;2023-02-01T20:52:15;6.40;70.80
1678;DHT22;6034;46.864;15.216;2023-02-01T20:54:44;6.40;72.40
1678;DHT22;6034;46.864;15.216;2023-02-01T20:57:17;6.40;75.40
1678;DHT22;6034;46.864;15.216;2023-02-01T21:00:02;6.30;74.80
1678;DHT22;6034;46.864;15.216;2023-02-01T21:02:33;6.30;74.60
1678;DHT22;6034;46.864;15.216;2023-02-01T21:05:16;6.30;74.40
1678;DHT22;6034;46.864;15.216;2023-02-01T21:07:44;6.30;73.80
1678;DHT22;6034;46.864;15.216;2023-02-01T21:10:12;6.10;73.40
1678;DHT22;6034;46.864;15.216;2023-02-01T21:12:40;6.20;73.50
1678;DHT22;6034;46.864;15.216;2023-02-01T21:15:09;6.10;73.00
1678;DHT22;6034;46.864;15.216;2023-02-01T21:17:37;6.10;73.60
1678;DHT22;6034;46.864;15.216;2023-02-01T21:20:06;6.00;74.50
1678;DHT22;6034;46.864;15.216;2023-02-01T21:22:37;5.80;75.40
1678;DHT22;6034;46.864;15.216;2023-02-01T21:25:05;5.90;74.80
1678;DHT22;6034;46.864;15.216;2023-02-01T21:27:33;5.80;73.50
1678;DHT22;6034;46.864;15.216;2023-02-01T21:30:02;5.70;74.50
1678;DHT22;6034;46.864;15.216;2023-02-01T21:32:35;5.80;75.80
1678;DHT22;6034;46.864;15.216;2023-02-01T21:35:03;5.60;74.70
1678;DHT22;6034;46.864;15.216;2023-02-01T21:37:32;5.50;75.30
1678;DHT22;6034;46.864;15.216;2023-02-01T21:40:02;5.70;76.20
1678;DHT22;6034;46.864;15.216;2023-02-01T21:42:30;5.70;76.30
1678;DHT22;6034;46.864;15.216;2023-02-01T21:44:58;5.70;76.60
1678;DHT22;6034;46.864;15.216;2023-02-01T21:47:40;5.70;76.80
1678;DHT22;6034;46.864;15.216;2023-02-01T21:50:14;5.70;76.90
1678;DHT22;6034;46.864;15.216;2023-02-01T21:52:42;5.60;77.40
1678;DHT22;6034;46.864;15.216;2023-02-01T21:55:14;5.50;76.60
1678;DHT22;6034;46.864;15.216;2023-02-01T21:57:41;5.50;77.30
1678;DHT22;6034;46.864;15.216;2023-02-01T22:02:39;5.50;77.60
1678;DHT22;6034;46.864;15.216;2023-02-01T22:05:07;5.40;78.00
1678;DHT22;6034;46.864;15.216;2023-02-01T22:07:35;5.40;76.90
1678;DHT22;6034;46.864;15.216;2023-02-01T22:10:03;5.40;78.50
1678;DHT22;6034;46.864;15.216;2023-02-01T22:12:33;5.40;78.20
1678;DHT22;6034;46.864;15.216;2023-02-01T22:15:01;5.30;78.10
1678;DHT22;6034;46.864;15.216;2023-02-01T22:17:28;5.30;78.70
1678;DHT22;6034;46.864;15.216;2023-02-01T22:19:56;5.30;78.10
1678;DHT22;6034;46.864;15.216;2023-02-01T22:22:23;5.30;78.50
1678;DHT22;6034;46.864;15.216;2023-02-01T22:24:51;5.30;78.00
1678;DHT22;6034;46.864;15.216;2023-02-01T22:27:19;5.20;76.80
1678;DHT22;6034;46.864;15.216;2023-02-01T22:29:47;5.30;77.90
1678;DHT22;6034;46.864;15.216;2023-02-01T22:32:15;5.30;76.70
1678;DHT22;6034;46.864;15.216;2023-02-01T22:34:42;5.30;76.00
1678;DHT22;6034;46.864;15.216;2023-02-01T22:37:09;5.30;75.70
1678;DHT22;6034;46.864;15.216;2023-02-01T22:39:37;5.40;75.40
1678;DHT22;6034;46.864;15.216;2023-02-01T22:42:04;5.40;74.80
1678;DHT22;6034;46.864;15.216;2023-02-01T22:44:31;5.50;73.80
1678;DHT22;6034;46.864;15.216;2023-02-01T22:47:00;5.50;73.20
1678;DHT22;6034;46.864;15.216;2023-02-01T22:49:27;5.50;74.10
1678;DHT22;6034;46.864;15.216;2023-02-01T22:51:55;5.60;72.20
1678;DHT22;6034;46.864;15.216;2023-02-01T22:54:23;5.70;71.70
1678;DHT22;6034;46.864;15.216;2023-02-01T22:56:51;5.80;72.40
1678;DHT22;6034;46.864;15.216;2023-02-01T22:59:18;5.80;71.90
